KEND/END METAR and TAF weather

Enter ICAO airport designator
Station Type Date Time Source
KEND METAR 2019/12/14 18:56 UTC NOAA

KEND 141856Z AUTO 00000KT 10SM OVC120 05/01 A2991 RMK AO2 SLP137 T00450010


Station Type Date Time Source
KEND Decoded METAR 2019/12/14 18:56 UTC NOAA

Vance Air Force Base / Enid, OK, United States (KEND) 36-20N 097-55W
Dec 14, 2019 - 01:56 PM EST / 2019.12.14 1856 UTC
Wind: Calm:0
Visibility: 10 mile(s):0
Sky conditions: overcast
Temperature: 40.1 F (4.5 C)
Dew Point: 33.8 F (1.0 C)
Relative Humidity: 77%
Pressure (altimeter): 29.91 in. Hg (1012 hPa)
ob: KEND 141856Z AUTO 00000KT 10SM OVC120 05/01 A2991 RMK AO2 SLP137 T00450010
cycle: 19

Station Type Date Time Source
KEND TAF 2019/12/13 18:11 UTC NOAA

TAF KEND 131800Z 1318/1424 VRB06KT 9999 FEW100 FEW220 QNH2985INS
BECMG 1322/1323 29006KT 9999 BKN090 BKN250 QNH2984INS
BECMG 1411/1412 33012KT 9999 BKN030 QNH2987INS
BECMG 1416/1417 02010KT 9999 SCT025 BKN080 QNH2990INS TX14/1321Z TN01/1412Z

Example: see airport list